sensor_id;sensor_type;location;lat;lon;timestamp;temperature;humidity
20526;DHT22;10421;49.142;9.232;2023-08-17T00:02:24;26.10;99.90
20526;DHT22;10421;49.142;9.232;2023-08-17T00:04:51;26.10;99.90
20526;DHT22;10421;49.142;9.232;2023-08-17T00:07:17;26.00;99.90
20526;DHT22;10421;49.142;9.232;2023-08-17T00:09:44;26.00;99.90
20526;DHT22;10421;49.142;9.232;2023-08-17T00:12:11;25.90;99.90
20526;DHT22;10421;49.142;9.232;2023-08-17T00:14:37;25.90;99.90
20526;DHT22;10421;49.142;9.232;2023-08-17T00:17:05;25.80;99.90
20526;DHT22;10421;49.142;9.232;2023-08-17T00:19:32;25.80;99.90
20526;DHT22;10421;49.142;9.232;2023-08-17T00:21:59;25.80;99.90
20526;DHT22;10421;49.142;9.232;2023-08-17T00:24:26;25.80;99.90
20526;DHT22;10421;49.142;9.232;2023-08-17T00:26:52;25.80;99.90
20526;DHT22;10421;49.142;9.232;2023-08-17T00:29:19;25.70;99.90
20526;DHT22;10421;49.142;9.232;2023-08-17T00:31:47;25.70;99.90
20526;DHT22;10421;49.142;9.232;2023-08-17T00:34:15;25.70;99.90
20526;DHT22;10421;49.142;9.232;2023-08-17T00:36:42;25.60;99.90
20526;DHT22;10421;49.142;9.232;2023-08-17T00:39:09;25.60;99.90
20526;DHT22;10421;49.142;9.232;2023-08-17T00:41:35;25.60;99.90
20526;DHT22;10421;49.142;9.232;2023-08-17T00:44:02;25.60;99.90
20526;DHT22;10421;49.142;9.232;2023-08-17T00:46:30;25.70;99.90
20526;DHT22;10421;49.142;9.232;2023-08-17T00:48:57;25.60;99.90
20526;DHT22;10421;49.142;9.232;2023-08-17T00:51:26;25.60;99.90
20526;DHT22;10421;49.142;9.232;2023-08-17T00:53:55;25.70;99.90
20526;DHT22;10421;49.142;9.232;2023-08-17T00:56:23;25.60;99.90
20526;DHT22;10421;49.142;9.232;2023-08-17T00:58:50;25.60;99.90
20526;DHT22;10421;49.142;9.232;2023-08-17T01:01:17;25.60;99.90
20526;DHT22;10421;49.142;9.232;2023-08-17T01:03:44;25.70;99.90
20526;DHT22;10421;49.142;9.232;2023-08-17T01:06:11;25.70;99.90
20526;DHT22;10421;49.142;9.232;2023-08-17T01:08:39;25.70;99.90
20526;DHT22;10421;49.142;9.232;2023-08-17T01:11:14;25.70;99.90
20526;DHT22;10421;49.142;9.232;2023-08-17T01:13:55;25.70;99.90
20526;DHT22;10421;49.142;9.232;2023-08-17T01:16:26;25.70;99.90
20526;DHT22;10421;49.142;9.232;2023-08-17T01:18:54;25.70;99.90
20526;DHT22;10421;49.142;9.232;2023-08-17T01:21:24;25.70;99.90
20526;DHT22;10421;49.142;9.232;2023-08-17T01:23:57;25.70;99.90
20526;DHT22;10421;49.142;9.232;2023-08-17T01:26:25;25.70;99.90
20526;DHT22;10421;49.142;9.232;2023-08-17T01:28:51;25.70;99.90
20526;DHT22;10421;49.142;9.232;2023-08-17T01:31:23;25.60;99.90
20526;DHT22;10421;49.142;9.232;2023-08-17T01:33:55;25.60;99.90
20526;DHT22;10421;49.142;9.232;2023-08-17T01:36:26;25.70;99.90
20526;DHT22;10421;49.142;9.232;2023-08-17T01:38:56;25.70;99.90
20526;DHT22;10421;49.142;9.232;2023-08-17T01:41:23;25.70;99.90
20526;DHT22;10421;49.142;9.232;2023-08-17T01:43:52;25.70;99.90
20526;DHT22;10421;49.142;9.232;2023-08-17T01:46:19;25.70;99.90
20526;DHT22;10421;49.142;9.232;2023-08-17T01:48:46;25.60;99.90
20526;DHT22;10421;49.142;9.232;2023-08-17T01:51:18;25.60;99.90
20526;DHT22;10421;49.142;9.232;2023-08-17T01:53:45;25.60;99.90
20526;DHT22;10421;49.142;9.232;2023-08-17T01:56:13;25.60;99.90
20526;DHT22;10421;49.142;9.232;2023-08-17T01:58:40;25.60;99.90
20526;DHT22;10421;49.142;9.232;2023-08-17T02:01:07;25.60;99.90
20526;DHT22;10421;49.142;9.232;2023-08-17T02:03:34;25.60;99.90
20526;DHT22;10421;49.142;9.232;2023-08-17T02:06:01;25.50;99.90
20526;DHT22;10421;49.142;9.232;2023-08-17T02:08:27;25.60;99.90
20526;DHT22;10421;49.142;9.232;2023-08-17T02:10:54;25.60;99.90
20526;DHT22;10421;49.142;9.232;2023-08-17T02:13:22;25.60;99.90
20526;DHT22;10421;49.142;9.232;2023-08-17T02:15:49;25.60;99.90
20526;DHT22;10421;49.142;9.232;2023-08-17T02:18:15;25.60;99.90
20526;DHT22;10421;49.142;9.232;2023-08-17T02:20:42;25.60;99.90
20526;DHT22;10421;49.142;9.232;2023-08-17T02:23:09;25.60;99.90
20526;DHT22;10421;49.142;9.232;2023-08-17T02:25:38;25.60;99.90
20526;DHT22;10421;49.142;9.232;2023-08-17T02:28:05;25.60;99.90
20526;DHT22;10421;49.142;9.232;2023-08-17T02:30:33;25.60;99.90
20526;DHT22;10421;49.142;9.232;2023-08-17T02:33:00;25.60;99.90
20526;DHT22;10421;49.142;9.232;2023-08-17T02:35:26;25.60;99.90
20526;DHT22;10421;49.142;9.232;2023-08-17T02:37:53;25.60;99.90
20526;DHT22;10421;49.142;9.232;2023-08-17T02:40:20;25.50;99.90
20526;DHT22;10421;49.142;9.232;2023-08-17T02:42:47;25.50;99.90
20526;DHT22;10421;49.142;9.232;2023-08-17T02:45:14;25.40;99.90
20526;DHT22;10421;49.142;9.232;2023-08-17T02:47:42;25.40;99.90
20526;DHT22;10421;49.142;9.232;2023-08-17T02:50:09;25.40;99.90
20526;DHT22;10421;49.142;9.232;2023-08-17T02:52:37;25.40;99.90
20526;DHT22;10421;49.142;9.232;2023-08-17T02:55:04;25.30;99.90
20526;DHT22;10421;49.142;9.232;2023-08-17T02:57:31;25.30;99.90
20526;DHT22;10421;49.142;9.232;2023-08-17T02:59:58;25.30;99.90
20526;DHT22;10421;49.142;9.232;2023-08-17T03:02:25;25.30;99.90
20526;DHT22;10421;49.142;9.232;2023-08-17T03:04:53;25.30;99.90
20526;DHT22;10421;49.142;9.232;2023-08-17T03:07:19;25.30;99.90
20526;DHT22;10421;49.142;9.232;2023-08-17T03:09:46;25.30;99.90
20526;DHT22;10421;49.142;9.232;2023-08-17T03:12:13;25.30;99.90
20526;DHT22;10421;49.142;9.232;2023-08-17T03:14:38;25.30;99.90
20526;DHT22;10421;49.142;9.232;2023-08-17T03:17:05;25.20;99.90
20526;DHT22;10421;49.142;9.232;2023-08-17T03:19:32;25.20;99.90
20526;DHT22;10421;49.142;9.232;2023-08-17T03:22:00;25.20;99.90
20526;DHT22;10421;49.142;9.232;2023-08-17T03:24:27;25.20;99.90
20526;DHT22;10421;49.142;9.232;2023-08-17T03:26:53;25.20;99.90
20526;DHT22;10421;49.142;9.232;2023-08-17T03:29:20;25.20;99.90
20526;DHT22;10421;49.142;9.232;2023-08-17T03:31:47;25.20;99.90
20526;DHT22;10421;49.142;9.232;2023-08-17T03:34:15;25.20;99.90
20526;DHT22;10421;49.142;9.232;2023-08-17T03:36:41;25.20;99.90
20526;DHT22;10421;49.142;9.232;2023-08-17T03:39:09;25.20;99.90
20526;DHT22;10421;49.142;9.232;2023-08-17T03:41:37;25.20;99.90
20526;DHT22;10421;49.142;9.232;2023-08-17T03:44:04;25.20;99.90
20526;DHT22;10421;49.142;9.232;2023-08-17T03:46:32;25.10;99.90
20526;DHT22;10421;49.142;9.232;2023-08-17T03:48:59;25.10;99.90
20526;DHT22;10421;49.142;9.232;2023-08-17T03:51:25;25.10;99.90
20526;DHT22;10421;49.142;9.232;2023-08-17T03:53:52;25.00;99.90
20526;DHT22;10421;49.142;9.232;2023-08-17T03:56:20;25.00;99.90
20526;DHT22;10421;49.142;9.232;2023-08-17T03:58:47;25.00;99.90
20526;DHT22;10421;49.142;9.232;2023-08-17T04:01:14;25.00;99.90
20526;DHT22;10421;49.142;9.232;2023-08-17T04:03:40;24.90;99.90
20526;DHT22;10421;49.142;9.232;2023-08-17T04:06:07;24.90;99.90
20526;DHT22;10421;49.142;9.232;2023-08-17T04:08:36;24.90;99.90
20526;DHT22;10421;49.142;9.232;2023-08-17T04:11:03;24.90;99.90
20526;DHT22;10421;49.142;9.232;2023-08-17T04:13:31;24.90;99.90
20526;DHT22;10421;49.142;9.232;2023-08-17T04:15:58;24.90;99.90
20526;DHT22;10421;49.142;9.232;2023-08-17T04:18:25;24.90;99.90
20526;DHT22;10421;49.142;9.232;2023-08-17T04:20:51;24.90;99.90
20526;DHT22;10421;49.142;9.232;2023-08-17T04:23:18;24.80;99.90
20526;DHT22;10421;49.142;9.232;2023-08-17T04:25:46;24.80;99.90
20526;DHT22;10421;49.142;9.232;2023-08-17T04:28:13;24.80;99.90
20526;DHT22;10421;49.142;9.232;2023-08-17T04:30:41;24.80;99.90
20526;DHT22;10421;49.142;9.232;2023-08-17T04:33:08;24.80;99.90
20526;DHT22;10421;49.142;9.232;2023-08-17T04:35:35;24.80;99.90
20526;DHT22;10421;49.142;9.232;2023-08-17T04:38:01;24.70;99.90
20526;DHT22;10421;49.142;9.232;2023-08-17T04:40:28;24.70;99.90
20526;DHT22;10421;49.142;9.232;2023-08-17T04:42:55;24.70;99.90
20526;DHT22;10421;49.142;9.232;2023-08-17T04:45:22;24.60;99.90
20526;DHT22;10421;49.142;9.232;2023-08-17T04:47:50;24.60;99.90
20526;DHT22;10421;49.142;9.232;2023-08-17T04:50:17;24.60;99.90
20526;DHT22;10421;49.142;9.232;2023-08-17T04:52:44;24.60;99.90
20526;DHT22;10421;49.142;9.232;2023-08-17T04:55:10;24.60;99.90
20526;DHT22;10421;49.142;9.232;2023-08-17T04:57:37;24.60;99.90
20526;DHT22;10421;49.142;9.232;2023-08-17T05:00:05;24.60;99.90
20526;DHT22;10421;49.142;9.232;2023-08-17T05:02:34;24.60;99.90
20526;DHT22;10421;49.142;9.232;2023-08-17T05:05:05;24.60;99.90
20526;DHT22;10421;49.142;9.232;2023-08-17T05:07:32;24.60;99.90
20526;DHT22;10421;49.142;9.232;2023-08-17T05:09:59;24.60;99.90
20526;DHT22;10421;49.142;9.232;2023-08-17T05:12:26;24.60;99.90
20526;DHT22;10421;49.142;9.232;2023-08-17T05:14:53;24.60;99.90
20526;DHT22;10421;49.142;9.232;2023-08-17T05:17:19;24.60;99.90
20526;DHT22;10421;49.142;9.232;2023-08-17T05:19:46;24.70;99.90
20526;DHT22;10421;49.142;9.232;2023-08-17T05:22:14;24.70;99.90
20526;DHT22;10421;49.142;9.232;2023-08-17T05:24:41;24.80;99.90
20526;DHT22;10421;49.142;9.232;2023-08-17T05:27:08;24.80;99.90
20526;DHT22;10421;49.142;9.232;2023-08-17T05:29:34;24.90;99.90
20526;DHT22;10421;49.142;9.232;2023-08-17T05:32:01;24.90;99.90
20526;DHT22;10421;49.142;9.232;2023-08-17T05:34:28;25.00;99.90
20526;DHT22;10421;49.142;9.232;2023-08-17T05:36:55;25.00;99.90
20526;DHT22;10421;49.142;9.232;2023-08-17T05:39:23;25.00;99.90
20526;DHT22;10421;49.142;9.232;2023-08-17T05:41:50;25.10;99.90
20526;DHT22;10421;49.142;9.232;2023-08-17T05:44:17;25.10;99.90
20526;DHT22;10421;49.142;9.232;2023-08-17T05:46:44;25.10;99.90
20526;DHT22;10421;49.142;9.232;2023-08-17T05:49:10;25.20;99.90
20526;DHT22;10421;49.142;9.232;2023-08-17T05:51:37;25.20;99.90
20526;DHT22;10421;49.142;9.232;2023-08-17T05:54:04;25.20;99.90
20526;DHT22;10421;49.142;9.232;2023-08-17T05:56:33;25.20;99.90
20526;DHT22;10421;49.142;9.232;2023-08-17T05:58:59;25.20;99.90
20526;DHT22;10421;49.142;9.232;2023-08-17T06:01:26;25.30;99.90
20526;DHT22;10421;49.142;9.232;2023-08-17T06:03:53;25.30;99.90
20526;DHT22;10421;49.142;9.232;2023-08-17T06:06:20;25.30;99.90
20526;DHT22;10421;49.142;9.232;2023-08-17T06:08:47;25.40;99.90
20526;DHT22;10421;49.142;9.232;2023-08-17T06:11:13;25.40;99.90
20526;DHT22;10421;49.142;9.232;2023-08-17T06:13:41;25.40;99.90
20526;DHT22;10421;49.142;9.232;2023-08-17T06:16:08;25.40;99.90
20526;DHT22;10421;49.142;9.232;2023-08-17T06:18:36;25.50;99.90
20526;DHT22;10421;49.142;9.232;2023-08-17T06:21:03;25.40;99.90
20526;DHT22;10421;49.142;9.232;2023-08-17T06:23:30;25.40;99.90
20526;DHT22;10421;49.142;9.232;2023-08-17T06:25:57;25.40;99.90
20526;DHT22;10421;49.142;9.232;2023-08-17T06:28:24;25.50;99.90
20526;DHT22;10421;49.142;9.232;2023-08-17T06:30:53;25.50;99.90
20526;DHT22;10421;49.142;9.232;2023-08-17T06:33:20;25.60;99.90
20526;DHT22;10421;49.142;9.232;2023-08-17T06:35:48;25.60;99.90
20526;DHT22;10421;49.142;9.232;2023-08-17T06:38:14;25.60;99.90
20526;DHT22;10421;49.142;9.232;2023-08-17T06:40:41;25.60;99.90
20526;DHT22;10421;49.142;9.232;2023-08-17T06:43:08;25.70;99.90
20526;DHT22;10421;49.142;9.232;2023-08-17T06:45:35;25.70;99.90
20526;DHT22;10421;49.142;9.232;2023-08-17T06:48:03;25.80;99.90
20526;DHT22;10421;49.142;9.232;2023-08-17T06:50:30;25.80;99.90
20526;DHT22;10421;49.142;9.232;2023-08-17T06:52:57;25.90;99.90
20526;DHT22;10421;49.142;9.232;2023-08-17T06:55:23;25.90;99.90
20526;DHT22;10421;49.142;9.232;2023-08-17T06:57:50;25.90;99.90
20526;DHT22;10421;49.142;9.232;2023-08-17T07:00:17;26.00;99.90
20526;DHT22;10421;49.142;9.232;2023-08-17T07:02:45;26.00;99.90
20526;DHT22;10421;49.142;9.232;2023-08-17T07:05:14;26.00;99.90
20526;DHT22;10421;49.142;9.232;2023-08-17T07:07:40;26.00;99.90
20526;DHT22;10421;49.142;9.232;2023-08-17T07:10:08;26.00;99.90
20526;DHT22;10421;49.142;9.232;2023-08-17T07:12:35;26.00;99.90
20526;DHT22;10421;49.142;9.232;2023-08-17T07:15:02;26.10;99.90
20526;DHT22;10421;49.142;9.232;2023-08-17T07:17:30;26.10;99.90
20526;DHT22;10421;49.142;9.232;2023-08-17T07:19:56;26.20;99.90
20526;DHT22;10421;49.142;9.232;2023-08-17T07:22:24;26.20;99.90
20526;DHT22;10421;49.142;9.232;2023-08-17T07:24:51;26.30;99.90
20526;DHT22;10421;49.142;9.232;2023-08-17T07:27:18;26.40;99.90
20526;DHT22;10421;49.142;9.232;2023-08-17T07:29:44;26.40;99.90
20526;DHT22;10421;49.142;9.232;2023-08-17T07:32:11;26.50;99.90
20526;DHT22;10421;49.142;9.232;2023-08-17T07:34:38;26.50;99.90
20526;DHT22;10421;49.142;9.232;2023-08-17T07:37:05;26.60;99.90
20526;DHT22;10421;49.142;9.232;2023-08-17T07:39:33;26.60;99.90
20526;DHT22;10421;49.142;9.232;2023-08-17T07:42:00;26.70;99.90
20526;DHT22;10421;49.142;9.232;2023-08-17T07:44:26;26.80;99.90
20526;DHT22;10421;49.142;9.232;2023-08-17T07:46:54;26.80;99.90
20526;DHT22;10421;49.142;9.232;2023-08-17T07:49:20;26.80;99.90
20526;DHT22;10421;49.142;9.232;2023-08-17T07:51:48;26.80;99.90
20526;DHT22;10421;49.142;9.232;2023-08-17T07:54:15;26.80;99.90
20526;DHT22;10421;49.142;9.232;2023-08-17T07:56:43;26.80;99.90
20526;DHT22;10421;49.142;9.232;2023-08-17T07:59:10;26.90;99.90
20526;DHT22;10421;49.142;9.232;2023-08-17T08:01:37;26.90;99.90
20526;DHT22;10421;49.142;9.232;2023-08-17T08:04:05;26.90;99.90
20526;DHT22;10421;49.142;9.232;2023-08-17T08:06:32;27.00;99.90
20526;DHT22;10421;49.142;9.232;2023-08-17T08:08:59;27.00;99.90
20526;DHT22;10421;49.142;9.232;2023-08-17T08:11:26;27.10;99.90
20526;DHT22;10421;49.142;9.232;2023-08-17T08:13:56;27.20;99.90
20526;DHT22;10421;49.142;9.232;2023-08-17T08:16:23;27.20;99.90
20526;DHT22;10421;49.142;9.232;2023-08-17T08:18:50;27.30;99.90
20526;DHT22;10421;49.142;9.232;2023-08-17T08:21:17;27.30;99.90
20526;DHT22;10421;49.142;9.232;2023-08-17T08:23:43;27.30;99.90
20526;DHT22;10421;49.142;9.232;2023-08-17T08:26:10;27.40;99.90
20526;DHT22;10421;49.142;9.232;2023-08-17T08:28:37;27.40;99.90
20526;DHT22;10421;49.142;9.232;2023-08-17T08:31:05;27.50;99.90
20526;DHT22;10421;49.142;9.232;2023-08-17T08:33:32;27.50;99.90
20526;DHT22;10421;49.142;9.232;2023-08-17T08:35:58;27.50;99.90
20526;DHT22;10421;49.142;9.232;2023-08-17T08:38:25;27.50;99.90
20526;DHT22;10421;49.142;9.232;2023-08-17T08:40:52;27.60;99.90
20526;DHT22;10421;49.142;9.232;2023-08-17T08:43:19;27.70;99.90
20526;DHT22;10421;49.142;9.232;2023-08-17T08:45:46;27.70;99.90
20526;DHT22;10421;49.142;9.232;2023-08-17T08:48:18;27.90;99.90
20526;DHT22;10421;49.142;9.232;2023-08-17T08:50:46;28.00;99.90
20526;DHT22;10421;49.142;9.232;2023-08-17T08:53:14;28.10;99.90
20526;DHT22;10421;49.142;9.232;2023-08-17T08:55:47;28.20;99.90
20526;DHT22;10421;49.142;9.232;2023-08-17T08:58:15;28.30;99.90
20526;DHT22;10421;49.142;9.232;2023-08-17T09:00:46;28.50;99.90
20526;DHT22;10421;49.142;9.232;2023-08-17T09:03:15;28.60;99.90
20526;DHT22;10421;49.142;9.232;2023-08-17T09:05:45;28.60;99.90
20526;DHT22;10421;49.142;9.232;2023-08-17T09:08:13;28.60;99.90
20526;DHT22;10421;49.142;9.232;2023-08-17T09:10:41;28.50;99.90
20526;DHT22;10421;49.142;9.232;2023-08-17T09:13:09;28.50;99.90
20526;DHT22;10421;49.142;9.232;2023-08-17T09:15:36;28.50;99.90
20526;DHT22;10421;49.142;9.232;2023-08-17T09:18:05;28.70;99.90
20526;DHT22;10421;49.142;9.232;2023-08-17T09:20:38;28.80;99.90
20526;DHT22;10421;49.142;9.232;2023-08-17T09:23:09;29.10;99.90
20526;DHT22;10421;49.142;9.232;2023-08-17T09:25:39;29.20;99.90
20526;DHT22;10421;49.142;9.232;2023-08-17T09:28:09;29.30;99.90
20526;DHT22;10421;49.142;9.232;2023-08-17T09:30:49;29.40;99.90
20526;DHT22;10421;49.142;9.232;2023-08-17T09:33:17;29.50;99.90
20526;DHT22;10421;49.142;9.232;2023-08-17T09:35:45;29.60;99.90
20526;DHT22;10421;49.142;9.232;2023-08-17T09:38:12;29.70;99.90
20526;DHT22;10421;49.142;9.232;2023-08-17T09:40:39;29.80;99.90
20526;DHT22;10421;49.142;9.232;2023-08-17T09:43:06;30.00;99.90
20526;DHT22;10421;49.142;9.232;2023-08-17T09:45:32;30.10;99.90
20526;DHT22;10421;49.142;9.232;2023-08-17T09:47:59;30.10;99.90
20526;DHT22;10421;49.142;9.232;2023-08-17T09:50:26;30.20;99.90
20526;DHT22;10421;49.142;9.232;2023-08-17T09:52:54;30.20;99.90
20526;DHT22;10421;49.142;9.232;2023-08-17T09:55:22;30.40;99.90
20526;DHT22;10421;49.142;9.232;2023-08-17T09:57:49;30.50;99.70
20526;DHT22;10421;49.142;9.232;2023-08-17T10:00:17;30.60;99.60
20526;DHT22;10421;49.142;9.232;2023-08-17T10:02:44;30.70;99.40
20526;DHT22;10421;49.142;9.232;2023-08-17T10:05:12;30.90;99.20
20526;DHT22;10421;49.142;9.232;2023-08-17T10:07:43;31.10;98.90
20526;DHT22;10421;49.142;9.232;2023-08-17T10:10:12;31.20;98.50
20526;DHT22;10421;49.142;9.232;2023-08-17T10:12:49;31.30;98.20
20526;DHT22;10421;49.142;9.232;2023-08-17T10:15:19;31.50;98.10
20526;DHT22;10421;49.142;9.232;2023-08-17T10:17:53;31.70;97.90
20526;DHT22;10421;49.142;9.232;2023-08-17T10:20:22;31.80;97.50
20526;DHT22;10421;49.142;9.232;2023-08-17T10:22:53;31.90;97.20
20526;DHT22;10421;49.142;9.232;2023-08-17T10:25:26;32.00;96.70
20526;DHT22;10421;49.142;9.232;2023-08-17T10:27:54;32.10;96.50
20526;DHT22;10421;49.142;9.232;2023-08-17T10:30:21;32.20;96.50
20526;DHT22;10421;49.142;9.232;2023-08-17T10:32:47;32.30;96.20
20526;DHT22;10421;49.142;9.232;2023-08-17T10:35:14;32.40;96.00
20526;DHT22;10421;49.142;9.232;2023-08-17T10:37:42;32.50;95.70
20526;DHT22;10421;49.142;9.232;2023-08-17T10:40:10;32.60;95.70
20526;DHT22;10421;49.142;9.232;2023-08-17T10:42:38;32.60;95.50
20526;DHT22;10421;49.142;9.232;2023-08-17T10:45:29;32.80;95.30
20526;DHT22;10421;49.142;9.232;2023-08-17T10:48:24;32.80;95.20
20526;DHT22;10421;49.142;9.232;2023-08-17T10:51:04;32.80;95.00
20526;DHT22;10421;49.142;9.232;2023-08-17T10:53:34;32.90;94.90
20526;DHT22;10421;49.142;9.232;2023-08-17T10:56:07;33.00;94.40
20526;DHT22;10421;49.142;9.232;2023-08-17T10:58:36;32.80;94.10
20526;DHT22;10421;49.142;9.232;2023-08-17T11:01:03;32.80;94.30
20526;DHT22;10421;49.142;9.232;2023-08-17T11:03:30;32.70;94.60
20526;DHT22;10421;49.142;9.232;2023-08-17T11:05:57;32.60;94.60
20526;DHT22;10421;49.142;9.232;2023-08-17T11:08:28;32.50;94.50
20526;DHT22;10421;49.142;9.232;2023-08-17T11:11:01;32.30;94.60
20526;DHT22;10421;49.142;9.232;2023-08-17T11:13:28;32.10;95.30
20526;DHT22;10421;49.142;9.232;2023-08-17T11:15:58;32.10;95.40
20526;DHT22;10421;49.142;9.232;2023-08-17T11:18:25;32.00;95.20
20526;DHT22;10421;49.142;9.232;2023-08-17T11:20:53;32.00;95.40
20526;DHT22;10421;49.142;9.232;2023-08-17T11:23:20;32.00;95.20
20526;DHT22;10421;49.142;9.232;2023-08-17T11:25:47;32.10;95.10
20526;DHT22;10421;49.142;9.232;2023-08-17T11:28:15;32.20;95.10
20526;DHT22;10421;49.142;9.232;2023-08-17T11:30:41;32.40;94.90
20526;DHT22;10421;49.142;9.232;2023-08-17T11:33:10;32.60;94.40
20526;DHT22;10421;49.142;9.232;2023-08-17T11:35:37;32.80;94.00
20526;DHT22;10421;49.142;9.232;2023-08-17T11:38:05;32.90;94.00
20526;DHT22;10421;49.142;9.232;2023-08-17T11:40:32;33.00;93.80
20526;DHT22;10421;49.142;9.232;2023-08-17T11:42:59;33.10;93.30
20526;DHT22;10421;49.142;9.232;2023-08-17T11:45:26;33.10;93.10
20526;DHT22;10421;49.142;9.232;2023-08-17T11:47:52;33.20;92.80
20526;DHT22;10421;49.142;9.232;2023-08-17T11:50:20;33.20;92.70
20526;DHT22;10421;49.142;9.232;2023-08-17T11:52:47;33.30;92.50
20526;DHT22;10421;49.142;9.232;2023-08-17T11:55:16;33.40;92.00
20526;DHT22;10421;49.142;9.232;2023-08-17T11:57:44;33.40;91.90
20526;DHT22;10421;49.142;9.232;2023-08-17T12:00:17;33.60;91.70
20526;DHT22;10421;49.142;9.232;2023-08-17T12:02:47;33.70;91.30
20526;DHT22;10421;49.142;9.232;2023-08-17T12:05:19;33.60;90.80
20526;DHT22;10421;49.142;9.232;2023-08-17T12:07:47;33.50;90.80
20526;DHT22;10421;49.142;9.232;2023-08-17T12:10:14;33.40;90.70
20526;DHT22;10421;49.142;9.232;2023-08-17T12:12:41;33.40;90.40
20526;DHT22;10421;49.142;9.232;2023-08-17T12:15:10;33.50;90.70
20526;DHT22;10421;49.142;9.232;2023-08-17T12:17:43;33.60;90.50
20526;DHT22;10421;49.142;9.232;2023-08-17T12:20:15;33.80;89.20
20526;DHT22;10421;49.142;9.232;2023-08-17T12:22:42;33.60;87.30
20526;DHT22;10421;49.142;9.232;2023-08-17T12:25:11;33.60;88.40
20526;DHT22;10421;49.142;9.232;2023-08-17T12:27:38;33.60;89.50
20526;DHT22;10421;49.142;9.232;2023-08-17T12:30:06;33.60;88.50
20526;DHT22;10421;49.142;9.232;2023-08-17T12:32:37;33.60;86.50
20526;DHT22;10421;49.142;9.232;2023-08-17T12:35:05;33.40;86.60
20526;DHT22;10421;49.142;9.232;2023-08-17T12:37:32;33.20;85.80
20526;DHT22;10421;49.142;9.232;2023-08-17T12:39:58;33.20;86.90
20526;DHT22;10421;49.142;9.232;2023-08-17T12:42:26;33.00;89.00
20526;DHT22;10421;49.142;9.232;2023-08-17T12:44:53;33.00;90.00
20526;DHT22;10421;49.142;9.232;2023-08-17T12:47:20;33.00;90.30
20526;DHT22;10421;49.142;9.232;2023-08-17T12:49:46;33.00;90.60
20526;DHT22;10421;49.142;9.232;2023-08-17T12:52:13;33.00;90.70
20526;DHT22;10421;49.142;9.232;2023-08-17T12:54:40;33.10;90.80
20526;DHT22;10421;49.142;9.232;2023-08-17T12:57:06;33.20;90.70
20526;DHT22;10421;49.142;9.232;2023-08-17T12:59:34;33.10;91.20
20526;DHT22;10421;49.142;9.232;2023-08-17T13:02:01;33.20;91.70
20526;DHT22;10421;49.142;9.232;2023-08-17T13:04:28;33.10;92.30
20526;DHT22;10421;49.142;9.232;2023-08-17T13:06:54;33.00;92.70
20526;DHT22;10421;49.142;9.232;2023-08-17T13:09:21;32.80;92.90
20526;DHT22;10421;49.142;9.232;2023-08-17T13:11:48;32.60;93.30
20526;DHT22;10421;49.142;9.232;2023-08-17T13:14:15;32.40;93.40
20526;DHT22;10421;49.142;9.232;2023-08-17T13:16:43;32.30;93.70
20526;DHT22;10421;49.142;9.232;2023-08-17T13:19:10;32.00;93.80
20526;DHT22;10421;49.142;9.232;2023-08-17T13:21:36;31.90;94.00
20526;DHT22;10421;49.142;9.232;2023-08-17T13:24:04;31.70;94.00
20526;DHT22;10421;49.142;9.232;2023-08-17T13:26:31;31.60;94.10
20526;DHT22;10421;49.142;9.232;2023-08-17T13:28:58;31.40;94.20
20526;DHT22;10421;49.142;9.232;2023-08-17T13:31:25;31.30;94.40
20526;DHT22;10421;49.142;9.232;2023-08-17T13:33:53;31.30;94.60
20526;DHT22;10421;49.142;9.232;2023-08-17T13:36:20;31.20;94.60
20526;DHT22;10421;49.142;9.232;2023-08-17T13:38:46;31.10;94.50
20526;DHT22;10421;49.142;9.232;2023-08-17T13:41:13;31.00;94.60
20526;DHT22;10421;49.142;9.232;2023-08-17T13:43:40;30.80;94.70
20526;DHT22;10421;49.142;9.232;2023-08-17T13:46:07;30.70;94.70
20526;DHT22;10421;49.142;9.232;2023-08-17T13:48:34;30.70;94.90
20526;DHT22;10421;49.142;9.232;2023-08-17T13:51:02;30.60;95.10
20526;DHT22;10421;49.142;9.232;2023-08-17T13:53:28;30.40;95.30
20526;DHT22;10421;49.142;9.232;2023-08-17T13:55:55;30.30;95.50
20526;DHT22;10421;49.142;9.232;2023-08-17T13:58:22;30.20;95.80
20526;DHT22;10421;49.142;9.232;2023-08-17T14:00:49;30.20;96.00
20526;DHT22;10421;49.142;9.232;2023-08-17T14:03:15;30.20;96.00
20526;DHT22;10421;49.142;9.232;2023-08-17T14:05:42;30.20;96.10
20526;DHT22;10421;49.142;9.232;2023-08-17T14:08:11;30.20;96.20
20526;DHT22;10421;49.142;9.232;2023-08-17T14:10:38;30.10;96.10
20526;DHT22;10421;49.142;9.232;2023-08-17T14:13:04;30.10;96.20
20526;DHT22;10421;49.142;9.232;2023-08-17T14:15:31;30.20;96.30
20526;DHT22;10421;49.142;9.232;2023-08-17T14:17:58;30.20;96.40
20526;DHT22;10421;49.142;9.232;2023-08-17T14:20:24;30.20;96.30
20526;DHT22;10421;49.142;9.232;2023-08-17T14:22:52;30.20;96.30
20526;DHT22;10421;49.142;9.232;2023-08-17T14:25:20;30.20;96.30
20526;DHT22;10421;49.142;9.232;2023-08-17T14:27:47;30.10;96.30
20526;DHT22;10421;49.142;9.232;2023-08-17T14:30:14;29.90;96.30
20526;DHT22;10421;49.142;9.232;2023-08-17T14:32:40;29.80;96.00
20526;DHT22;10421;49.142;9.232;2023-08-17T14:35:07;29.80;96.10
20526;DHT22;10421;49.142;9.232;2023-08-17T14:37:34;29.90;96.20
20526;DHT22;10421;49.142;9.232;2023-08-17T14:40:01;29.90;96.30
20526;DHT22;10421;49.142;9.232;2023-08-17T14:42:29;30.00;96.20
20526;DHT22;10421;49.142;9.232;2023-08-17T14:44:56;30.00;96.10
20526;DHT22;10421;49.142;9.232;2023-08-17T14:47:23;30.10;96.00
20526;DHT22;10421;49.142;9.232;2023-08-17T14:49:49;30.10;95.70
20526;DHT22;10421;49.142;9.232;2023-08-17T14:52:18;30.10;95.70
20526;DHT22;10421;49.142;9.232;2023-08-17T14:54:45;30.10;95.80
20526;DHT22;10421;49.142;9.232;2023-08-17T14:57:12;30.00;95.90
20526;DHT22;10421;49.142;9.232;2023-08-17T14:59:40;30.00;96.10
20526;DHT22;10421;49.142;9.232;2023-08-17T15:02:06;29.90;96.20
20526;DHT22;10421;49.142;9.232;2023-08-17T15:04:34;30.00;96.20
20526;DHT22;10421;49.142;9.232;2023-08-17T15:07:03;30.00;96.20
20526;DHT22;10421;49.142;9.232;2023-08-17T15:09:35;30.10;96.20
20526;DHT22;10421;49.142;9.232;2023-08-17T15:12:02;30.20;96.20
20526;DHT22;10421;49.142;9.232;2023-08-17T15:14:28;30.20;96.20
20526;DHT22;10421;49.142;9.232;2023-08-17T15:16:56;30.20;96.30
20526;DHT22;10421;49.142;9.232;2023-08-17T15:19:23;30.20;96.20
20526;DHT22;10421;49.142;9.232;2023-08-17T15:21:50;30.30;96.20
20526;DHT22;10421;49.142;9.232;2023-08-17T15:24:17;30.30;96.10
20526;DHT22;10421;49.142;9.232;2023-08-17T15:26:43;30.30;96.00
20526;DHT22;10421;49.142;9.232;2023-08-17T15:29:12;30.30;96.00
20526;DHT22;10421;49.142;9.232;2023-08-17T15:31:39;30.30;96.10
20526;DHT22;10421;49.142;9.232;2023-08-17T15:34:08;30.40;96.30